Terminal Aerodrome Forecast
Issued by NWS Albany, NY

Home | Current Version | Previous Version | Text Only | Print | Product List | Glossary On
Versions: 1 2 3 4 5 6 7 8 9 10 11 12 13 14 15 16 17 18 19
000
FTUS41 KALY 300500 RRA
TAFGFL
TAF
KGFL 300542Z 3006/3106 00000KT 6SM BR SCT060
      TEMPO 3007/3011 2SM BR BKN006
     FM301200 19004KT P6SM SCT150 BKN250
     FM301500 19008KT P6SM SCT050 SCT150 BKN250=

USA.gov is the U.S. government's official web portal to all federal, state and local government web resources and services.